METAR Formatted Surface Weather Observation
Issued by NWS

Home | Current Version | Previous Version | Text Only | Print | Product List | Glossary On
Versions: 1
SAUS42 KRAH 281559
METAR KNJM 281557Z AUTO 35005KT 10SM CLR 21/12 A3027 RMK AO2 SLP252
T02110122 is the U.S. government's official web portal to all federal, state and local government web resources and services.